createdAt,value
2022-10-01T00:01:00.165Z,82.50
2022-10-01T00:05:06.370Z,82.60
2022-10-01T00:09:09.643Z,82.70
2022-10-01T00:13:13.085Z,82.70
2022-10-01T00:17:16.403Z,82.70
2022-10-01T00:21:22.553Z,82.70
2022-10-01T00:25:25.968Z,82.60
2022-10-01T00:29:28.967Z,82.30
2022-10-01T00:33:32.050Z,82.20
2022-10-01T00:37:37.623Z,82.10
2022-10-01T00:41:41.122Z,82.00
2022-10-01T00:45:44.029Z,81.80
2022-10-01T00:49:49.586Z,81.70
2022-10-01T00:54:01.185Z,81.60
2022-10-01T00:58:05.068Z,81.20
2022-10-01T01:02:07.944Z,81.30
2022-10-01T01:06:10.769Z,81.30
2022-10-01T01:10:17.438Z,81.20
2022-10-01T01:14:25.701Z,80.60
2022-10-01T01:18:34.740Z,80.70
2022-10-01T01:22:42.667Z,80.60
2022-10-01T01:26:59.777Z,81.60
2022-10-01T01:31:09.614Z,81.20
2022-10-01T01:35:16.483Z,81.30
2022-10-01T01:39:21.413Z,81.70
2022-10-01T01:43:29.355Z,81.80
2022-10-01T01:47:34.269Z,81.90
2022-10-01T01:51:42.183Z,82.00
2022-10-01T01:55:49.262Z,82.30
2022-10-01T01:59:52.107Z,82.30
2022-10-01T02:03:56.770Z,82.40
2022-10-01T02:08:33.877Z,82.40
2022-10-01T02:12:51.388Z,82.50
2022-10-01T02:17:01.969Z,82.70
2022-10-01T02:21:14.694Z,82.80
2022-10-01T02:25:19.642Z,83.10
2022-10-01T02:29:24.548Z,83.40
2022-10-01T02:33:32.038Z,83.70
2022-10-01T02:37:39.208Z,84.10
2022-10-01T02:41:44.308Z,84.50
2022-10-01T02:45:52.407Z,84.70
2022-10-01T02:49:55.612Z,85.20
2022-10-01T02:54:03.934Z,85.70
2022-10-01T02:58:07.978Z,86.30
2022-10-01T03:02:11.163Z,86.40
2022-10-01T03:06:14.154Z,86.60
2022-10-01T03:10:18.651Z,86.70
2022-10-01T03:14:21.517Z,87.20
2022-10-01T03:18:24.441Z,87.70
2022-10-01T03:22:27.284Z,88.90
2022-10-01T03:26:31.453Z,90.00
2022-10-01T03:30:34.332Z,90.40
2022-10-01T03:34:37.435Z,91.20
2022-10-01T03:38:40.233Z,91.70
2022-10-01T03:42:44.414Z,92.10
2022-10-01T03:46:47.342Z,92.50
2022-10-01T03:50:55.418Z,92.90
2022-10-01T03:54:58.264Z,93.60
2022-10-01T03:59:02.847Z,94.00
2022-10-01T04:03:06.679Z,94.10
2022-10-01T04:07:09.703Z,94.40
2022-10-01T04:11:12.608Z,95.20
2022-10-01T04:15:17.461Z,95.10
2022-10-01T04:19:20.984Z,95.40
2022-10-01T04:23:23.993Z,95.50
2022-10-01T04:27:26.875Z,95.90
2022-10-01T04:31:35.102Z,95.70
2022-10-01T04:35:38.758Z,96.10
2022-10-01T04:39:41.815Z,96.20
2022-10-01T04:43:44.610Z,96.40
2022-10-01T04:47:53.064Z,96.40
2022-10-01T04:51:55.953Z,96.70
2022-10-01T04:55:58.885Z,96.70
2022-10-01T05:00:04.084Z,96.80
2022-10-01T05:04:08.448Z,97.00
2022-10-01T05:08:11.364Z,97.10
2022-10-01T05:12:14.566Z,97.20
2022-10-01T05:16:17.519Z,97.20
2022-10-01T05:20:24.191Z,97.30
2022-10-01T05:24:27.151Z,97.50
2022-10-01T05:28:30.400Z,97.60
2022-10-01T05:32:33.246Z,97.80
2022-10-01T05:36:37.486Z,97.90
2022-10-01T05:40:40.298Z,97.90
2022-10-01T05:44:46.186Z,97.90
2022-10-01T05:48:50.184Z,97.90
2022-10-01T05:52:55.130Z,98.00
2022-10-01T05:56:57.994Z,98.10
2022-10-01T06:01:00.850Z,98.20
2022-10-01T06:05:03.730Z,98.50
2022-10-01T06:09:07.871Z,98.70
2022-10-01T06:13:13.402Z,98.80
2022-10-01T06:17:16.247Z,98.80
2022-10-01T06:21:19.088Z,98.70
2022-10-01T06:25:23.838Z,98.60
2022-10-01T06:29:27.091Z,98.70
2022-10-01T06:33:30.379Z,98.60
2022-10-01T06:37:37.244Z,98.70
2022-10-01T06:41:43.468Z,98.70
2022-10-01T06:45:51.101Z,98.70
2022-10-01T06:49:54.002Z,98.70
2022-10-01T06:53:58.875Z,99.00
2022-10-01T06:58:06.356Z,99.30
2022-10-01T07:02:21.188Z,99.60
2022-10-01T07:06:24.104Z,99.90
2022-10-01T07:10:26.883Z,99.90
2022-10-01T07:14:31.171Z,99.90
2022-10-01T07:18:34.065Z,99.90
2022-10-01T07:22:37.815Z,99.90
2022-10-01T07:26:40.718Z,99.90
2022-10-01T07:30:47.391Z,99.90
2022-10-01T07:34:51.194Z,99.90
2022-10-01T07:38:54.105Z,99.90
2022-10-01T07:42:57.564Z,99.90
2022-10-01T07:47:02.015Z,99.90
2022-10-01T07:51:05.041Z,99.90
2022-10-01T07:55:10.943Z,99.90
2022-10-01T07:59:13.767Z,99.90
2022-10-01T08:03:17.905Z,99.90
2022-10-01T08:07:21.222Z,99.90
2022-10-01T08:11:24.639Z,99.90
2022-10-01T08:15:27.918Z,99.90
2022-10-01T08:19:32.110Z,99.90
2022-10-01T08:23:35.381Z,99.90
2022-10-01T08:27:38.274Z,99.70
2022-10-01T08:31:41.111Z,99.80
2022-10-01T08:35:45.390Z,99.80
2022-10-01T08:39:48.204Z,99.70
2022-10-01T08:43:53.479Z,99.60
2022-10-01T08:48:03.044Z,99.60
2022-10-01T08:52:15.997Z,99.60
2022-10-01T08:56:23.573Z,99.60
2022-10-01T09:00:36.100Z,99.60
2022-10-01T09:04:39.057Z,99.40
2022-10-01T09:08:54.447Z,99.40
2022-10-01T09:13:14.658Z,99.50
2022-10-01T09:17:24.260Z,99.60
2022-10-01T09:21:43.873Z,99.60
2022-10-01T09:25:51.410Z,99.70
2022-10-01T09:30:00.722Z,99.60
2022-10-01T09:34:10.070Z,99.50
2022-10-01T09:38:19.817Z,99.50
2022-10-01T09:42:28.195Z,99.40
2022-10-01T09:46:31.478Z,99.10
2022-10-01T09:50:41.713Z,99.10
2022-10-01T09:54:48.165Z,98.90
2022-10-01T09:58:56.995Z,98.60
2022-10-01T10:03:00.783Z,98.30
2022-10-01T10:07:05.902Z,98.10
2022-10-01T10:11:11.590Z,97.80
2022-10-01T10:15:19.542Z,97.80
2022-10-01T10:19:25.797Z,97.60
2022-10-01T10:23:29.325Z,97.30
2022-10-01T10:27:32.530Z,97.00
2022-10-01T10:31:42.633Z,96.60
2022-10-01T10:35:45.522Z,96.70
2022-10-01T10:39:51.984Z,96.70
2022-10-01T10:44:02.148Z,96.70
2022-10-01T10:48:12.768Z,96.80
2022-10-01T10:52:25.192Z,96.90
2022-10-01T10:56:28.045Z,96.80
2022-10-01T11:00:30.978Z,96.60
2022-10-01T11:04:42.668Z,96.20
2022-10-01T11:08:57.013Z,96.00
2022-10-01T11:13:32.687Z,96.10
2022-10-01T11:17:55.132Z,95.70
2022-10-01T11:22:19.481Z,95.40
2022-10-01T11:26:29.929Z,94.90
2022-10-01T11:30:42.450Z,94.80
2022-10-01T11:35:05.043Z,94.50
2022-10-01T11:39:14.076Z,94.80
2022-10-01T11:43:22.270Z,94.70
2022-10-01T11:47:31.541Z,94.50
2022-10-01T11:51:42.673Z,94.90
2022-10-01T11:56:10.453Z,95.00
2022-10-01T12:00:15.894Z,94.90
2022-10-01T12:04:32.191Z,95.00
2022-10-01T12:08:38.228Z,95.00
2022-10-01T12:12:48.230Z,94.80
2022-10-01T12:16:55.818Z,94.90
2022-10-01T12:21:01.266Z,94.10
2022-10-01T12:25:04.501Z,93.50
2022-10-01T12:29:15.830Z,93.00
2022-10-01T12:33:44.890Z,92.90
2022-10-01T12:38:08.615Z,92.20
2022-10-01T12:42:31.290Z,91.90
2022-10-01T12:46:43.017Z,91.20
2022-10-01T12:50:53.284Z,88.90
2022-10-01T12:55:08.962Z,90.20
2022-10-01T12:59:35.239Z,89.50
2022-10-01T13:04:08.713Z,89.70
2022-10-01T13:08:29.779Z,91.00
2022-10-01T13:12:46.604Z,91.90
2022-10-01T13:16:57.067Z,93.10
2022-10-01T13:21:08.770Z,94.30
2022-10-01T13:25:25.616Z,95.30
2022-10-01T13:29:38.451Z,96.10
2022-10-01T13:33:42.304Z,96.70
2022-10-01T13:37:46.520Z,96.80
2022-10-01T13:41:50.534Z,96.70
2022-10-01T13:45:55.233Z,96.40
2022-10-01T13:50:03.597Z,96.40
2022-10-01T13:54:18.763Z,95.50
2022-10-01T13:58:32.160Z,95.10
2022-10-01T14:02:37.226Z,95.70
2022-10-01T14:06:44.544Z,95.50
2022-10-01T14:11:13.428Z,95.00
2022-10-01T14:15:36.346Z,94.80
2022-10-01T14:19:46.812Z,94.90
2022-10-01T14:23:54.689Z,94.90
2022-10-01T14:28:13.289Z,94.60
2022-10-01T14:32:27.370Z,94.70
2022-10-01T14:36:35.076Z,95.10
2022-10-01T14:40:40.326Z,94.70
2022-10-01T14:44:46.375Z,94.00
2022-10-01T14:48:59.162Z,94.10
2022-10-01T14:53:02.336Z,93.60
2022-10-01T14:57:10.991Z,93.40
2022-10-01T15:01:20.325Z,93.30
2022-10-01T15:05:26.163Z,93.30
2022-10-01T15:09:34.390Z,93.00
2022-10-01T15:13:40.405Z,93.10
2022-10-01T15:17:44.688Z,93.00
2022-10-01T15:21:51.425Z,93.00
2022-10-01T15:25:55.653Z,93.00
2022-10-01T15:29:59.612Z,92.80
2022-10-01T15:34:04.853Z,91.40
2022-10-01T15:38:07.762Z,91.40
2022-10-01T15:42:22.306Z,95.70
2022-10-01T15:46:32.710Z,96.20
2022-10-01T15:50:41.506Z,97.20
2022-10-01T15:54:46.342Z,97.50
2022-10-01T15:58:53.193Z,97.80
2022-10-01T16:02:58.319Z,97.70
2022-10-01T16:07:02.568Z,98.10
2022-10-01T16:11:18.884Z,98.10
2022-10-01T16:15:26.667Z,98.30
2022-10-01T16:19:31.339Z,98.20
2022-10-01T16:23:37.323Z,98.20
2022-10-01T16:27:47.162Z,98.40
2022-10-01T16:31:51.349Z,98.60
2022-10-01T16:36:07.911Z,98.90
2022-10-01T16:40:16.241Z,98.90
2022-10-01T16:44:19.774Z,99.10
2022-10-01T16:48:23.276Z,99.20
2022-10-01T16:52:26.500Z,99.40
2022-10-01T16:56:31.112Z,99.40
2022-10-01T17:00:35.704Z,99.40
2022-10-01T17:04:38.977Z,99.60
2022-10-01T17:08:42.397Z,98.90
2022-10-01T17:12:47.997Z,98.50
2022-10-01T17:16:50.930Z,97.50
2022-10-01T17:20:53.899Z,96.80
2022-10-01T17:24:56.750Z,96.10
2022-10-01T17:29:01.110Z,96.00
2022-10-01T17:33:04.022Z,96.30
2022-10-01T17:37:06.822Z,96.30
2022-10-01T17:41:09.673Z,96.50
2022-10-01T17:45:15.137Z,96.60
2022-10-01T17:49:18.549Z,96.70
2022-10-01T17:53:22.096Z,96.70
2022-10-01T17:57:25.061Z,96.80
2022-10-01T18:01:29.725Z,96.70
2022-10-01T18:05:32.717Z,96.70
2022-10-01T18:09:36.804Z,96.50
2022-10-01T18:13:40.806Z,96.50
2022-10-01T18:17:51.401Z,96.80
2022-10-01T18:21:54.576Z,96.80
2022-10-01T18:25:57.550Z,96.90
2022-10-01T18:30:00.739Z,96.90
2022-10-01T18:34:13.797Z,97.10
2022-10-01T18:38:25.602Z,97.10
2022-10-01T18:42:40.304Z,97.20
2022-10-01T18:46:52.945Z,97.10
2022-10-01T18:51:02.858Z,96.80
2022-10-01T18:55:25.262Z,96.70
2022-10-01T19:00:03.186Z,96.20
2022-10-01T19:04:32.604Z,95.30
2022-10-01T19:09:03.710Z,95.10
2022-10-01T19:13:16.031Z,94.90
2022-10-01T19:17:32.103Z,95.00
2022-10-01T19:21:40.713Z,95.20
2022-10-01T19:25:51.007Z,95.50
2022-10-01T19:30:12.332Z,95.70
2022-10-01T19:34:19.755Z,95.80
2022-10-01T19:38:29.422Z,96.00
2022-10-01T19:42:38.097Z,96.00
2022-10-01T19:46:45.329Z,96.10
2022-10-01T19:50:54.521Z,96.40
2022-10-01T19:55:00.748Z,96.60
2022-10-01T19:59:08.734Z,96.70
2022-10-01T20:03:16.472Z,96.90
2022-10-01T20:07:25.282Z,97.00
2022-10-01T20:11:31.656Z,97.10
2022-10-01T20:15:45.294Z,97.30
2022-10-01T20:19:57.644Z,97.40
2022-10-01T20:24:08.404Z,97.60
2022-10-01T20:28:19.099Z,97.90
2022-10-01T20:32:31.101Z,98.20
2022-10-01T20:36:40.084Z,98.40
2022-10-01T20:40:49.566Z,98.60
2022-10-01T20:44:53.971Z,98.70
2022-10-01T20:49:03.925Z,98.60
2022-10-01T20:53:26.424Z,98.60
2022-10-01T20:57:35.494Z,98.50
2022-10-01T21:01:42.787Z,98.60
2022-10-01T21:05:51.642Z,98.50
2022-10-01T21:09:58.843Z,98.40
2022-10-01T21:14:08.122Z,98.40
2022-10-01T21:18:17.272Z,98.30
2022-10-01T21:22:32.529Z,98.30
2022-10-01T21:26:46.485Z,98.30
2022-10-01T21:31:03.124Z,98.40
2022-10-01T21:35:18.204Z,98.40
2022-10-01T21:39:31.102Z,98.40
2022-10-01T21:43:47.394Z,98.40
2022-10-01T21:48:03.955Z,98.50
2022-10-01T21:52:16.681Z,98.50
2022-10-01T21:56:38.372Z,98.60
2022-10-01T22:00:41.750Z,98.60
2022-10-01T22:04:50.073Z,98.70
2022-10-01T22:09:08.197Z,98.80
2022-10-01T22:13:16.778Z,98.80
2022-10-01T22:17:25.983Z,98.80
2022-10-01T22:21:35.892Z,98.90
2022-10-01T22:25:44.362Z,99.30
2022-10-01T22:29:53.749Z,99.60
2022-10-01T22:34:00.647Z,99.80
2022-10-01T22:38:08.011Z,99.90
2022-10-01T22:42:16.068Z,99.90
2022-10-01T22:46:40.149Z,99.90
2022-10-01T22:50:54.371Z,99.90
2022-10-01T22:55:10.767Z,99.90
2022-10-01T22:59:22.026Z,99.90
2022-10-01T23:03:41.963Z,99.90
2022-10-01T23:07:53.669Z,99.90
2022-10-01T23:12:02.229Z,99.90
2022-10-01T23:16:15.571Z,99.90
2022-10-01T23:20:29.708Z,99.90
2022-10-01T23:24:46.526Z,99.90
2022-10-01T23:29:07.327Z,99.90
2022-10-01T23:33:30.347Z,99.90
2022-10-01T23:38:05.007Z,99.90
2022-10-01T23:42:20.117Z,99.90
2022-10-01T23:46:27.668Z,99.90
2022-10-01T23:50:33.957Z,99.90
2022-10-01T23:54:41.026Z,99.90
2022-10-01T23:58:48.329Z,99.90
